createdAt,value
2022-10-17T00:00:35.770Z,50.24
2022-10-17T00:03:02.345Z,50.15
2022-10-17T00:05:28.778Z,49.82
2022-10-17T00:07:55.218Z,50.20
2022-10-17T00:10:21.746Z,50.29
2022-10-17T00:12:48.427Z,49.83
2022-10-17T00:15:16.053Z,50.01
2022-10-17T00:17:42.559Z,50.21
2022-10-17T00:20:09.119Z,50.08
2022-10-17T00:25:02.894Z,49.96
2022-10-17T00:27:29.790Z,50.26
2022-10-17T00:29:56.435Z,50.66
2022-10-17T00:32:22.836Z,50.55
2022-10-17T00:34:49.239Z,50.32
2022-10-17T00:37:15.659Z,50.28
2022-10-17T00:39:42.023Z,50.46
2022-10-17T00:42:11.099Z,50.37
2022-10-17T00:44:37.507Z,50.65
2022-10-17T00:47:06.039Z,50.62
2022-10-17T00:49:34.178Z,50.29
2022-10-17T00:52:02.609Z,50.59
2022-10-17T00:54:31.340Z,50.36
2022-10-17T00:56:57.952Z,50.57
2022-10-17T00:59:25.108Z,50.72
2022-10-17T01:01:54.756Z,50.83
2022-10-17T01:04:21.325Z,50.64
2022-10-17T01:06:47.752Z,50.45
2022-10-17T01:09:14.204Z,50.65
2022-10-17T01:11:40.613Z,50.81
2022-10-17T01:14:27.273Z,50.64
2022-10-17T01:17:12.243Z,51.00
2022-10-17T01:19:59.464Z,51.01
2022-10-17T01:22:26.152Z,51.09
2022-10-17T01:24:52.693Z,50.96
2022-10-17T01:27:38.056Z,50.96
2022-10-17T01:30:07.528Z,50.68
2022-10-17T01:32:49.880Z,51.03
2022-10-17T01:35:22.968Z,51.00
2022-10-17T01:37:49.473Z,50.89
2022-10-17T01:40:32.968Z,50.82
2022-10-17T01:43:07.624Z,51.15
2022-10-17T01:45:40.656Z,51.41
2022-10-17T01:48:14.584Z,51.20
2022-10-17T01:50:47.532Z,51.31
2022-10-17T01:53:17.612Z,51.68
2022-10-17T01:55:46.344Z,51.60
2022-10-17T01:58:15.837Z,51.57
2022-10-17T02:00:43.529Z,51.30
2022-10-17T02:03:13.565Z,51.74
2022-10-17T02:05:41.515Z,51.66
2022-10-17T02:08:08.001Z,51.51
2022-10-17T02:10:46.413Z,51.67
2022-10-17T02:13:12.769Z,52.10
2022-10-17T02:15:44.854Z,51.94
2022-10-17T02:18:13.966Z,52.14
2022-10-17T02:20:49.645Z,52.45
2022-10-17T02:23:24.431Z,52.63
2022-10-17T02:26:04.049Z,52.49
2022-10-17T02:28:35.035Z,52.66
2022-10-17T02:31:04.431Z,52.31
2022-10-17T02:33:44.198Z,52.63
2022-10-17T02:36:20.086Z,52.86
2022-10-17T02:38:46.763Z,52.74
2022-10-17T02:41:16.109Z,52.40
2022-10-17T02:43:45.438Z,52.41
2022-10-17T02:46:20.745Z,52.54
2022-10-17T02:48:48.850Z,52.42
2022-10-17T02:51:29.816Z,52.20
2022-10-17T02:54:25.526Z,52.31
2022-10-17T02:57:03.776Z,52.39
2022-10-17T02:59:32.200Z,52.36
2022-10-17T03:01:58.838Z,52.61
2022-10-17T03:04:25.251Z,53.17
2022-10-17T03:06:51.742Z,52.43
2022-10-17T03:09:18.102Z,52.40
2022-10-17T03:11:44.498Z,52.69
2022-10-17T03:14:10.957Z,52.51
2022-10-17T03:16:37.397Z,52.16
2022-10-17T03:19:03.818Z,52.50
2022-10-17T03:21:30.290Z,52.13
2022-10-17T03:23:56.703Z,52.38
2022-10-17T03:26:23.268Z,52.38
2022-10-17T03:28:52.078Z,52.21
2022-10-17T03:31:20.810Z,52.10
2022-10-17T03:33:47.209Z,52.37
2022-10-17T03:36:14.860Z,52.01
2022-10-17T03:38:41.580Z,52.37
2022-10-17T03:41:08.609Z,52.26
2022-10-17T03:43:34.996Z,52.55
2022-10-17T03:46:01.652Z,52.60
2022-10-17T03:48:29.232Z,52.44
2022-10-17T03:50:59.284Z,52.31
2022-10-17T03:53:25.680Z,52.49
2022-10-17T03:55:52.039Z,52.19
2022-10-17T03:58:18.456Z,52.36
2022-10-17T04:00:44.904Z,52.48
2022-10-17T04:03:16.293Z,52.26
2022-10-17T04:05:43.806Z,52.38
2022-10-17T04:08:10.220Z,52.62
2022-10-17T04:10:36.677Z,52.16
2022-10-17T04:13:03.184Z,52.68
2022-10-17T04:15:29.552Z,52.28
2022-10-17T04:17:56.097Z,52.25
2022-10-17T04:20:28.961Z,52.69
2022-10-17T04:22:55.421Z,52.56
2022-10-17T04:25:21.826Z,52.71
2022-10-17T04:27:49.177Z,52.36
2022-10-17T04:30:16.125Z,52.68
2022-10-17T04:32:42.886Z,52.67
2022-10-17T04:35:09.329Z,52.76
2022-10-17T04:37:35.781Z,52.35
2022-10-17T04:40:02.193Z,52.67
2022-10-17T04:42:29.328Z,52.60
2022-10-17T04:44:55.912Z,52.77
2022-10-17T04:47:22.305Z,52.89
2022-10-17T04:49:48.805Z,52.82
2022-10-17T04:52:15.209Z,52.74
2022-10-17T04:54:41.609Z,52.58
2022-10-17T04:57:08.135Z,52.20
2022-10-17T04:59:34.634Z,52.85
2022-10-17T05:02:01.070Z,52.47
2022-10-17T05:04:27.558Z,52.43
2022-10-17T05:06:54.113Z,52.11
2022-10-17T05:09:20.622Z,52.26
2022-10-17T05:11:47.038Z,52.14
2022-10-17T05:14:13.450Z,52.62
2022-10-17T05:16:39.866Z,52.11
2022-10-17T05:19:06.552Z,52.90
2022-10-17T05:24:19.412Z,52.22
2022-10-17T05:26:45.884Z,52.45
2022-10-17T05:29:12.383Z,52.74
2022-10-17T05:31:38.932Z,52.34
2022-10-17T05:34:07.965Z,52.58
2022-10-17T05:36:36.761Z,52.38
2022-10-17T05:39:03.280Z,52.12
2022-10-17T05:41:29.730Z,52.43
2022-10-17T05:43:56.192Z,52.56
2022-10-17T05:46:22.663Z,52.20
2022-10-17T05:48:49.037Z,52.26
2022-10-17T05:51:15.441Z,52.71
2022-10-17T05:53:42.255Z,52.46
2022-10-17T05:56:10.240Z,52.32
2022-10-17T05:58:49.874Z,52.47
2022-10-17T06:01:17.967Z,52.22
2022-10-17T06:03:44.661Z,52.17
2022-10-17T06:06:12.574Z,52.38
2022-10-17T06:08:39.272Z,52.69
2022-10-17T06:11:09.128Z,52.54
2022-10-17T06:13:36.826Z,52.37
2022-10-17T06:16:03.281Z,52.49
2022-10-17T06:18:29.854Z,52.45
2022-10-17T06:21:01.869Z,52.65
2022-10-17T06:23:28.260Z,52.23
2022-10-17T06:25:57.705Z,52.62
2022-10-17T06:28:24.165Z,52.75
2022-10-17T06:30:50.602Z,52.40
2022-10-17T06:33:17.991Z,52.23
2022-10-17T06:35:44.574Z,52.68
2022-10-17T06:38:11.018Z,52.57
2022-10-17T06:40:37.438Z,52.50
2022-10-17T06:43:03.849Z,52.56
2022-10-17T06:45:30.277Z,52.58
2022-10-17T06:47:56.678Z,52.50
2022-10-17T06:50:23.091Z,52.46
2022-10-17T06:52:52.313Z,52.68
2022-10-17T06:55:22.610Z,52.70
2022-10-17T06:57:51.846Z,52.67
2022-10-17T07:00:18.346Z,52.69
2022-10-17T07:02:44.738Z,52.98
2022-10-17T07:05:11.336Z,53.24
2022-10-17T07:07:40.147Z,52.71
2022-10-17T07:10:09.601Z,52.74
2022-10-17T07:12:36.458Z,52.61
2022-10-17T07:15:04.489Z,52.56
2022-10-17T07:17:31.338Z,52.60
2022-10-17T07:19:58.145Z,52.42
2022-10-17T07:22:24.754Z,52.23
2022-10-17T07:24:51.204Z,52.84
2022-10-17T07:27:17.601Z,52.54
2022-10-17T07:29:44.038Z,52.97
2022-10-17T07:32:10.525Z,52.82
2022-10-17T07:34:37.046Z,52.33
2022-10-17T07:37:04.047Z,52.48
2022-10-17T07:39:30.485Z,52.48
2022-10-17T07:41:56.961Z,52.47
2022-10-17T07:44:23.366Z,52.35
2022-10-17T07:46:49.855Z,52.89
2022-10-17T07:49:16.289Z,52.65
2022-10-17T07:51:42.757Z,52.25
2022-10-17T07:54:09.272Z,52.42
2022-10-17T07:56:36.112Z,52.13
2022-10-17T07:59:05.167Z,52.04
2022-10-17T08:01:34.755Z,52.40
2022-10-17T08:04:01.463Z,52.31
2022-10-17T08:06:27.896Z,52.02
2022-10-17T08:08:55.300Z,52.35
2022-10-17T08:11:22.837Z,52.08
2022-10-17T08:13:49.220Z,52.19
2022-10-17T08:16:15.611Z,52.04
2022-10-17T08:18:42.736Z,51.75
2022-10-17T08:21:11.255Z,51.72
2022-10-17T08:23:37.739Z,51.75
2022-10-17T08:26:05.347Z,52.21
2022-10-17T08:28:34.482Z,51.57
2022-10-17T08:31:08.215Z,51.46
2022-10-17T08:33:34.897Z,51.84
2022-10-17T08:36:01.772Z,51.35
2022-10-17T08:38:35.674Z,51.54
2022-10-17T08:41:21.414Z,51.33
2022-10-17T08:43:59.384Z,51.58
2022-10-17T08:46:31.275Z,51.37
2022-10-17T08:48:58.889Z,51.16
2022-10-17T08:51:28.336Z,51.39
2022-10-17T08:54:03.597Z,51.24
2022-10-17T08:56:48.198Z,51.05
2022-10-17T08:59:21.652Z,51.35
2022-10-17T09:02:07.116Z,51.16
2022-10-17T09:04:40.789Z,51.40
2022-10-17T09:07:16.976Z,51.06
2022-10-17T09:09:55.741Z,51.05
2022-10-17T09:12:38.819Z,51.18
2022-10-17T09:15:23.793Z,50.61
2022-10-17T09:18:07.773Z,50.84
2022-10-17T09:20:37.510Z,50.51
2022-10-17T09:23:09.789Z,50.78
2022-10-17T09:25:42.589Z,50.56
2022-10-17T09:28:21.825Z,50.46
2022-10-17T09:30:57.245Z,50.49
2022-10-17T09:33:35.632Z,50.81
2022-10-17T09:36:23.577Z,50.20
2022-10-17T09:38:54.477Z,50.38
2022-10-17T09:41:46.453Z,50.37
2022-10-17T09:44:23.895Z,50.18
2022-10-17T09:47:29.125Z,50.07
2022-10-17T09:53:35.804Z,50.30
2022-10-17T09:56:28.972Z,49.80
2022-10-17T09:59:23.929Z,50.06
2022-10-17T10:02:26.550Z,49.67
2022-10-17T10:05:09.789Z,49.80
2022-10-17T10:10:57.485Z,49.75
2022-10-17T10:14:17.270Z,49.52
2022-10-17T10:16:52.537Z,49.39
2022-10-17T10:19:23.824Z,48.89
2022-10-17T10:21:55.345Z,49.52
2022-10-17T10:24:25.881Z,49.10
2022-10-17T10:26:58.270Z,49.30
2022-10-17T10:29:29.114Z,49.16
2022-10-17T10:31:55.811Z,49.74
2022-10-17T10:34:30.200Z,49.63
2022-10-17T10:37:02.242Z,49.38
2022-10-17T10:39:31.932Z,49.49
2022-10-17T10:41:59.194Z,49.52
2022-10-17T10:44:27.327Z,49.49
2022-10-17T10:47:14.522Z,48.46
2022-10-17T10:49:41.589Z,48.12
2022-10-17T10:52:08.663Z,48.04
2022-10-17T10:57:07.364Z,47.92
2022-10-17T10:59:49.096Z,47.75
2022-10-17T11:02:36.529Z,47.47
2022-10-17T11:05:21.865Z,47.81
2022-10-17T11:07:56.100Z,47.21
2022-10-17T11:10:30.762Z,47.59
2022-10-17T11:13:13.922Z,47.18
2022-10-17T11:15:40.242Z,46.80
2022-10-17T11:18:08.428Z,46.68
2022-10-17T11:20:53.389Z,45.87
2022-10-17T11:23:24.050Z,47.38
2022-10-17T11:25:51.331Z,46.82
2022-10-17T11:28:19.590Z,46.30
2022-10-17T11:30:48.701Z,45.82
2022-10-17T11:33:22.143Z,46.50
2022-10-17T11:35:50.451Z,46.31
2022-10-17T11:38:16.805Z,46.49
2022-10-17T11:40:45.493Z,46.70
2022-10-17T11:43:16.091Z,44.72
2022-10-17T11:45:48.559Z,45.53
2022-10-17T11:48:35.018Z,45.59
2022-10-17T11:54:13.459Z,44.23
2022-10-17T11:56:49.972Z,44.58
2022-10-17T11:59:31.611Z,43.85
2022-10-17T12:02:02.512Z,45.10
2022-10-17T12:04:44.769Z,44.65
2022-10-17T12:07:17.885Z,44.09
2022-10-17T12:09:47.121Z,44.09
2022-10-17T12:12:24.595Z,45.14
2022-10-17T12:14:51.043Z,44.64
2022-10-17T12:17:28.149Z,43.11
2022-10-17T12:20:14.711Z,41.79
2022-10-17T12:22:46.792Z,42.73
2022-10-17T12:25:24.168Z,42.98
2022-10-17T12:27:51.027Z,40.95
2022-10-17T12:30:17.449Z,42.21
2022-10-17T12:33:07.465Z,41.69
2022-10-17T12:35:35.692Z,43.13
2022-10-17T12:38:17.356Z,44.10
2022-10-17T12:40:48.418Z,41.18
2022-10-17T12:43:18.259Z,41.61
2022-10-17T12:45:49.039Z,42.06
2022-10-17T12:48:47.787Z,41.79
2022-10-17T12:54:15.070Z,42.57
2022-10-17T12:56:42.675Z,40.31
2022-10-17T12:59:14.515Z,41.14
2022-10-17T13:01:43.874Z,42.03
2022-10-17T13:04:10.821Z,40.14
2022-10-17T13:06:40.440Z,40.29
2022-10-17T13:09:20.851Z,40.88
2022-10-17T13:11:49.051Z,40.70
2022-10-17T13:14:17.252Z,39.16
2022-10-17T13:16:52.764Z,38.07
2022-10-17T13:19:23.531Z,37.80
2022-10-17T13:21:51.147Z,39.41
2022-10-17T13:24:23.599Z,40.14
2022-10-17T13:26:49.993Z,39.14
2022-10-17T13:29:16.389Z,39.88
2022-10-17T13:31:44.241Z,39.24
2022-10-17T13:34:18.878Z,40.11
2022-10-17T13:36:48.807Z,38.24
2022-10-17T13:39:23.154Z,40.31
2022-10-17T13:41:55.637Z,39.08
2022-10-17T13:44:23.549Z,40.35
2022-10-17T13:46:50.125Z,40.68
2022-10-17T13:49:26.079Z,40.35
2022-10-17T13:51:55.317Z,39.41
2022-10-17T13:54:30.665Z,40.11
2022-10-17T13:56:58.351Z,40.42
2022-10-17T13:59:37.885Z,40.01
2022-10-17T14:02:05.910Z,40.80
2022-10-17T14:04:57.812Z,41.13
2022-10-17T14:08:09.543Z,41.13
2022-10-17T14:10:32.525Z,41.40
2022-10-17T14:13:00.081Z,41.82
2022-10-17T14:15:28.067Z,41.42
2022-10-17T14:17:59.496Z,42.03
2022-10-17T14:23:27.210Z,41.95
2022-10-17T14:26:04.126Z,40.48
2022-10-17T14:28:30.820Z,41.35
2022-10-17T14:31:09.338Z,41.38
2022-10-17T14:33:38.518Z,41.32
2022-10-17T14:36:07.872Z,41.41
2022-10-17T14:38:35.983Z,42.35
2022-10-17T14:41:37.809Z,41.50
2022-10-17T14:43:56.952Z,41.75
2022-10-17T14:46:23.560Z,42.38
2022-10-17T14:48:58.785Z,42.29
2022-10-17T14:51:25.290Z,42.27
2022-10-17T14:54:05.299Z,42.43
2022-10-17T14:56:36.775Z,42.54
2022-10-17T14:59:07.569Z,42.51
2022-10-17T15:01:37.642Z,42.17
2022-10-17T15:04:04.055Z,42.11
2022-10-17T15:06:32.298Z,42.75
2022-10-17T15:08:58.926Z,42.79
2022-10-17T15:11:25.322Z,42.77
2022-10-17T15:13:51.763Z,42.58
2022-10-17T15:16:25.915Z,43.03
2022-10-17T15:18:52.942Z,42.83
2022-10-17T15:21:33.615Z,42.90
2022-10-17T15:24:05.891Z,42.81
2022-10-17T15:26:33.611Z,43.07
2022-10-17T15:29:00.409Z,42.93
2022-10-17T15:31:27.743Z,42.83
2022-10-17T15:33:54.130Z,42.95
2022-10-17T15:36:23.594Z,43.03
2022-10-17T15:38:52.173Z,43.24
2022-10-17T15:41:18.745Z,42.91
2022-10-17T15:43:46.546Z,43.29
2022-10-17T15:46:14.230Z,42.80
2022-10-17T15:48:41.298Z,43.18
2022-10-17T15:51:08.051Z,43.07
2022-10-17T15:53:34.742Z,43.36
2022-10-17T15:56:01.457Z,43.43
2022-10-17T15:58:32.438Z,43.13
2022-10-17T16:00:58.967Z,43.14
2022-10-17T16:03:25.425Z,43.15
2022-10-17T16:05:51.786Z,42.50
2022-10-17T16:08:18.129Z,43.47
2022-10-17T16:10:44.477Z,43.43
2022-10-17T16:13:29.242Z,43.43
2022-10-17T16:15:55.728Z,43.14
2022-10-17T16:18:22.184Z,43.40
2022-10-17T16:22:06.752Z,43.59
2022-10-17T16:24:33.233Z,43.84
2022-10-17T16:26:59.648Z,43.85
2022-10-17T16:29:26.104Z,43.71
2022-10-17T16:31:52.616Z,43.75
2022-10-17T16:34:19.066Z,43.61
2022-10-17T16:36:45.506Z,44.09
2022-10-17T16:39:11.956Z,43.70
2022-10-17T16:41:39.465Z,44.16
2022-10-17T16:44:07.481Z,44.09
2022-10-17T16:46:36.064Z,43.76
2022-10-17T16:49:03.879Z,44.16
2022-10-17T16:51:31.364Z,44.01
2022-10-17T16:54:00.270Z,43.86
2022-10-17T16:56:29.920Z,44.06
2022-10-17T16:58:57.124Z,43.94
2022-10-17T17:01:24.230Z,44.11
2022-10-17T17:03:51.360Z,44.04
2022-10-17T17:06:20.727Z,44.15
2022-10-17T17:08:47.753Z,43.96
2022-10-17T17:11:15.185Z,43.94
2022-10-17T17:13:42.001Z,44.43
2022-10-17T17:16:10.558Z,43.99
2022-10-17T17:18:37.365Z,44.27
2022-10-17T17:21:06.724Z,44.44
2022-10-17T17:23:34.288Z,44.50
2022-10-17T17:26:01.789Z,44.46
2022-10-17T17:28:28.402Z,44.23
2022-10-17T17:30:55.596Z,44.63
2022-10-17T17:33:23.020Z,44.50
2022-10-17T17:35:54.609Z,44.38
2022-10-17T17:38:21.028Z,44.60
2022-10-17T17:40:50.601Z,44.61
2022-10-17T17:43:18.043Z,44.52
2022-10-17T17:45:44.577Z,44.96
2022-10-17T17:48:12.366Z,44.77
2022-10-17T17:50:40.134Z,44.61
2022-10-17T17:53:07.035Z,44.79
2022-10-17T17:55:33.677Z,45.25
2022-10-17T17:58:00.321Z,45.00
2022-10-17T18:00:26.993Z,45.18
2022-10-17T18:02:53.499Z,45.47
2022-10-17T18:05:20.366Z,45.39
2022-10-17T18:07:46.862Z,45.14
2022-10-17T18:12:42.147Z,45.27
2022-10-17T18:15:08.978Z,45.27
2022-10-17T18:17:35.587Z,45.33
2022-10-17T18:20:03.315Z,45.41
2022-10-17T18:22:30.032Z,45.60
2022-10-17T18:24:56.978Z,45.52
2022-10-17T18:27:23.496Z,45.76
2022-10-17T18:29:51.208Z,45.61
2022-10-17T18:32:17.820Z,45.40
2022-10-17T18:34:44.356Z,45.67
2022-10-17T18:37:10.844Z,45.62
2022-10-17T18:39:37.308Z,45.85
2022-10-17T18:42:03.864Z,45.43
2022-10-17T18:44:30.349Z,45.98
2022-10-17T18:46:59.895Z,45.63
2022-10-17T18:49:29.673Z,45.74
2022-10-17T18:51:56.176Z,46.35
2022-10-17T18:54:24.484Z,45.96
2022-10-17T18:56:52.231Z,46.05
2022-10-17T18:59:19.257Z,45.75
2022-10-17T19:01:45.887Z,46.08
2022-10-17T19:04:12.886Z,45.90
2022-10-17T19:06:39.683Z,45.87
2022-10-17T19:09:07.502Z,45.96
2022-10-17T19:11:34.777Z,46.41
2022-10-17T19:14:03.693Z,46.17
2022-10-17T19:16:32.202Z,46.15
2022-10-17T19:19:03.558Z,46.58
2022-10-17T19:21:30.166Z,46.35
2022-10-17T19:23:57.918Z,46.33
2022-10-17T19:26:24.860Z,46.51
2022-10-17T19:28:53.642Z,46.48
2022-10-17T19:31:25.604Z,46.52
2022-10-17T19:33:53.430Z,46.87
2022-10-17T19:36:21.117Z,47.03
2022-10-17T19:38:47.502Z,47.05
2022-10-17T19:41:14.783Z,46.95
2022-10-17T19:43:42.087Z,47.40
2022-10-17T19:46:11.048Z,47.49
2022-10-17T19:48:38.064Z,47.46
2022-10-17T19:51:08.915Z,47.15
2022-10-17T19:53:35.511Z,47.30
2022-10-17T19:56:02.123Z,47.47
2022-10-17T19:58:28.728Z,47.62
2022-10-17T20:00:57.206Z,47.57
2022-10-17T20:03:27.268Z,47.23
2022-10-17T20:05:53.920Z,47.26
2022-10-17T20:08:20.565Z,47.69
2022-10-17T20:10:47.484Z,47.35
2022-10-17T20:13:14.108Z,47.73
2022-10-17T20:15:40.717Z,47.77
2022-10-17T20:18:07.613Z,47.42
2022-10-17T20:20:34.914Z,47.83
2022-10-17T20:23:01.505Z,47.72
2022-10-17T20:25:28.011Z,47.51
2022-10-17T20:27:54.384Z,47.78
2022-10-17T20:30:22.861Z,47.86
2022-10-17T20:32:49.413Z,47.85
2022-10-17T20:35:15.901Z,48.13
2022-10-17T20:37:42.833Z,47.84
2022-10-17T20:40:34.067Z,48.33
2022-10-17T20:42:56.064Z,47.96
2022-10-17T20:45:37.344Z,48.07
2022-10-17T20:48:14.215Z,48.20
2022-10-17T20:50:41.192Z,48.52
2022-10-17T20:53:34.945Z,48.38
2022-10-17T20:56:05.382Z,48.12
2022-10-17T20:58:31.806Z,48.65
2022-10-17T21:00:58.193Z,48.36
2022-10-17T21:03:25.540Z,48.42
2022-10-17T21:05:52.013Z,48.64
2022-10-17T21:08:18.523Z,48.57
2022-10-17T21:10:44.914Z,48.94
2022-10-17T21:13:11.305Z,49.21
2022-10-17T21:15:37.714Z,49.22
2022-10-17T21:18:04.104Z,49.87
2022-10-17T21:20:30.621Z,49.55
2022-10-17T21:22:57.649Z,49.56
2022-10-17T21:25:24.130Z,49.75
2022-10-17T21:27:52.249Z,50.07
2022-10-17T21:30:19.889Z,50.20
2022-10-17T21:32:51.655Z,49.60
2022-10-17T21:35:18.445Z,49.58
2022-10-17T21:37:44.853Z,50.00
2022-10-17T21:40:11.589Z,51.00
2022-10-17T21:42:38.037Z,51.12
2022-10-17T21:45:10.606Z,51.46
2022-10-17T21:48:11.195Z,50.57
2022-10-17T21:50:32.984Z,50.40
2022-10-17T21:52:59.388Z,50.39
2022-10-17T21:55:25.756Z,50.06
2022-10-17T21:57:52.156Z,50.39
2022-10-17T22:00:18.595Z,50.07
2022-10-17T22:02:44.999Z,50.09
2022-10-17T22:05:11.505Z,50.54
2022-10-17T22:07:37.892Z,50.09
2022-10-17T22:10:04.456Z,50.17
2022-10-17T22:12:31.231Z,50.35
2022-10-17T22:14:57.832Z,50.39
2022-10-17T22:17:24.308Z,50.38
2022-10-17T22:19:50.677Z,51.26
2022-10-17T22:22:17.213Z,51.20
2022-10-17T22:24:43.622Z,51.02
2022-10-17T22:27:10.426Z,50.99
2022-10-17T22:29:36.884Z,50.77
2022-10-17T22:32:03.312Z,50.94
2022-10-17T22:34:29.741Z,51.19
2022-10-17T22:36:56.156Z,51.01
2022-10-17T22:39:22.500Z,51.25
2022-10-17T22:41:48.944Z,51.08
2022-10-17T22:44:15.321Z,51.02
2022-10-17T22:46:41.748Z,51.18
2022-10-17T22:49:08.566Z,51.23
2022-10-17T22:51:34.998Z,51.28
2022-10-17T22:54:01.409Z,51.58
2022-10-17T22:56:27.878Z,51.58
2022-10-17T22:58:54.454Z,51.46
2022-10-17T23:01:22.756Z,51.30
2022-10-17T23:03:49.801Z,51.48
2022-10-17T23:06:16.479Z,51.78
2022-10-17T23:08:42.882Z,51.38
2022-10-17T23:11:09.458Z,51.29
2022-10-17T23:13:36.585Z,51.74
2022-10-17T23:16:03.809Z,51.52
2022-10-17T23:20:57.595Z,51.69
2022-10-17T23:23:24.036Z,51.58
2022-10-17T23:25:50.703Z,51.42
2022-10-17T23:28:17.526Z,51.18
2022-10-17T23:30:44.149Z,51.37
2022-10-17T23:33:11.166Z,51.36
2022-10-17T23:35:37.576Z,51.54
2022-10-17T23:38:03.991Z,51.54
2022-10-17T23:40:30.462Z,51.33
2022-10-17T23:42:56.873Z,51.46
2022-10-17T23:45:23.404Z,51.32
2022-10-17T23:47:49.836Z,51.69
2022-10-17T23:50:16.521Z,51.80
2022-10-17T23:52:42.942Z,51.28
2022-10-17T23:55:09.651Z,51.56
2022-10-17T23:57:38.319Z,51.84
